sensor_id;sensor_type;location;lat;lon;timestamp;temperature;humidity
52036;DHT22;38046;49.448;32.074;2022-07-09T00:00:03;22.10;75.10
52036;DHT22;38046;49.448;32.074;2022-07-09T00:02:29;22.10;75.10
52036;DHT22;38046;49.448;32.074;2022-07-09T00:04:54;22.10;75.10
52036;DHT22;38046;49.448;32.074;2022-07-09T00:07:20;22.10;75.20
52036;DHT22;38046;49.448;32.074;2022-07-09T00:09:45;22.20;75.80
52036;DHT22;38046;49.448;32.074;2022-07-09T00:12:11;22.20;75.00
52036;DHT22;38046;49.448;32.074;2022-07-09T00:14:37;22.10;74.90
52036;DHT22;38046;49.448;32.074;2022-07-09T00:17:03;22.10;75.60
52036;DHT22;38046;49.448;32.074;2022-07-09T00:19:28;22.10;75.00
52036;DHT22;38046;49.448;32.074;2022-07-09T00:21:54;22.00;75.10
52036;DHT22;38046;49.448;32.074;2022-07-09T00:24:20;22.00;75.00
52036;DHT22;38046;49.448;32.074;2022-07-09T00:26:46;21.90;75.10
52036;DHT22;38046;49.448;32.074;2022-07-09T00:29:11;21.90;75.20
52036;DHT22;38046;49.448;32.074;2022-07-09T00:31:37;21.80;75.40
52036;DHT22;38046;49.448;32.074;2022-07-09T00:34:03;21.80;75.50
52036;DHT22;38046;49.448;32.074;2022-07-09T00:36:28;21.80;75.50
52036;DHT22;38046;49.448;32.074;2022-07-09T00:38:54;21.80;75.70
52036;DHT22;38046;49.448;32.074;2022-07-09T00:41:20;21.80;76.00
52036;DHT22;38046;49.448;32.074;2022-07-09T00:43:46;21.80;75.90
52036;DHT22;38046;49.448;32.074;2022-07-09T00:46:16;21.80;75.80
52036;DHT22;38046;49.448;32.074;2022-07-09T00:48:42;21.70;75.80
52036;DHT22;38046;49.448;32.074;2022-07-09T00:51:09;21.70;75.90
52036;DHT22;38046;49.448;32.074;2022-07-09T00:53:37;21.70;76.00
52036;DHT22;38046;49.448;32.074;2022-07-09T00:56:04;21.60;76.00
52036;DHT22;38046;49.448;32.074;2022-07-09T00:58:30;21.60;76.10
52036;DHT22;38046;49.448;32.074;2022-07-09T01:00:56;21.60;76.20
52036;DHT22;38046;49.448;32.074;2022-07-09T01:03:22;21.50;76.10
52036;DHT22;38046;49.448;32.074;2022-07-09T01:05:48;21.50;76.10
52036;DHT22;38046;49.448;32.074;2022-07-09T01:08:14;21.40;76.10
52036;DHT22;38046;49.448;32.074;2022-07-09T01:10:41;21.30;76.10
52036;DHT22;38046;49.448;32.074;2022-07-09T01:13:07;21.30;76.20
52036;DHT22;38046;49.448;32.074;2022-07-09T01:15:33;21.30;76.30
52036;DHT22;38046;49.448;32.074;2022-07-09T01:17:59;21.30;76.40
52036;DHT22;38046;49.448;32.074;2022-07-09T01:20:26;21.30;76.40
52036;DHT22;38046;49.448;32.074;2022-07-09T01:22:52;21.30;76.50
52036;DHT22;38046;49.448;32.074;2022-07-09T01:25:18;21.20;76.90
52036;DHT22;38046;49.448;32.074;2022-07-09T01:27:46;21.20;77.20
52036;DHT22;38046;49.448;32.074;2022-07-09T01:30:26;21.20;77.50
52036;DHT22;38046;49.448;32.074;2022-07-09T01:32:53;21.10;77.90
52036;DHT22;38046;49.448;32.074;2022-07-09T01:35:19;21.10;78.20
52036;DHT22;38046;49.448;32.074;2022-07-09T01:37:45;21.00;78.40
52036;DHT22;38046;49.448;32.074;2022-07-09T01:40:11;21.00;78.50
52036;DHT22;38046;49.448;32.074;2022-07-09T01:42:37;20.90;78.50
52036;DHT22;38046;49.448;32.074;2022-07-09T01:45:03;20.90;78.60
52036;DHT22;38046;49.448;32.074;2022-07-09T01:47:29;20.80;78.70
52036;DHT22;38046;49.448;32.074;2022-07-09T01:49:55;20.80;78.60
52036;DHT22;38046;49.448;32.074;2022-07-09T01:52:20;20.70;78.80
52036;DHT22;38046;49.448;32.074;2022-07-09T01:54:46;20.70;79.10
52036;DHT22;38046;49.448;32.074;2022-07-09T01:57:12;20.70;79.30
52036;DHT22;38046;49.448;32.074;2022-07-09T01:59:38;20.60;79.50
52036;DHT22;38046;49.448;32.074;2022-07-09T02:02:04;20.60;79.60
52036;DHT22;38046;49.448;32.074;2022-07-09T02:04:31;20.60;79.70
52036;DHT22;38046;49.448;32.074;2022-07-09T02:06:56;20.60;79.80
52036;DHT22;38046;49.448;32.074;2022-07-09T02:09:22;20.60;80.00
52036;DHT22;38046;49.448;32.074;2022-07-09T02:11:48;20.60;80.20
52036;DHT22;38046;49.448;32.074;2022-07-09T02:14:14;20.60;80.30
52036;DHT22;38046;49.448;32.074;2022-07-09T02:16:40;20.50;80.50
52036;DHT22;38046;49.448;32.074;2022-07-09T02:19:06;20.60;81.20
52036;DHT22;38046;49.448;32.074;2022-07-09T02:21:32;20.60;81.60
52036;DHT22;38046;49.448;32.074;2022-07-09T02:23:58;20.60;81.90
52036;DHT22;38046;49.448;32.074;2022-07-09T02:26:28;20.60;81.80
52036;DHT22;38046;49.448;32.074;2022-07-09T02:28:58;20.60;82.00
52036;DHT22;38046;49.448;32.074;2022-07-09T02:31:24;20.60;82.20
52036;DHT22;38046;49.448;32.074;2022-07-09T02:33:50;20.60;82.50
52036;DHT22;38046;49.448;32.074;2022-07-09T02:36:16;20.60;83.00
52036;DHT22;38046;49.448;32.074;2022-07-09T02:38:41;20.60;83.20
52036;DHT22;38046;49.448;32.074;2022-07-09T02:41:07;20.60;83.50
52036;DHT22;38046;49.448;32.074;2022-07-09T02:43:33;20.60;83.70
52036;DHT22;38046;49.448;32.074;2022-07-09T02:45:58;20.60;83.80
52036;DHT22;38046;49.448;32.074;2022-07-09T02:48:24;20.60;83.90
52036;DHT22;38046;49.448;32.074;2022-07-09T02:50:53;20.70;84.20
52036;DHT22;38046;49.448;32.074;2022-07-09T02:53:19;20.60;84.40
52036;DHT22;38046;49.448;32.074;2022-07-09T02:55:45;20.70;84.70
52036;DHT22;38046;49.448;32.074;2022-07-09T02:58:12;20.70;84.80
52036;DHT22;38046;49.448;32.074;2022-07-09T03:00:38;20.70;85.00
52036;DHT22;38046;49.448;32.074;2022-07-09T03:03:08;20.70;85.10
52036;DHT22;38046;49.448;32.074;2022-07-09T03:05:34;20.70;85.00
52036;DHT22;38046;49.448;32.074;2022-07-09T03:08:00;20.80;85.10
52036;DHT22;38046;49.448;32.074;2022-07-09T03:10:26;20.80;85.10
52036;DHT22;38046;49.448;32.074;2022-07-09T03:12:52;20.80;85.20
52036;DHT22;38046;49.448;32.074;2022-07-09T03:15:17;20.80;85.20
52036;DHT22;38046;49.448;32.074;2022-07-09T03:17:44;20.80;85.30
52036;DHT22;38046;49.448;32.074;2022-07-09T03:20:10;20.90;85.40
52036;DHT22;38046;49.448;32.074;2022-07-09T03:22:36;20.90;85.50
52036;DHT22;38046;49.448;32.074;2022-07-09T03:25:03;20.90;85.40
52036;DHT22;38046;49.448;32.074;2022-07-09T03:27:29;21.00;85.20
52036;DHT22;38046;49.448;32.074;2022-07-09T03:29:55;21.00;85.10
52036;DHT22;38046;49.448;32.074;2022-07-09T03:32:20;21.00;85.10
52036;DHT22;38046;49.448;32.074;2022-07-09T03:34:47;21.10;85.00
52036;DHT22;38046;49.448;32.074;2022-07-09T03:37:13;21.10;84.70
52036;DHT22;38046;49.448;32.074;2022-07-09T03:39:39;21.10;84.90
52036;DHT22;38046;49.448;32.074;2022-07-09T03:42:04;21.10;84.80
52036;DHT22;38046;49.448;32.074;2022-07-09T03:44:32;21.20;85.20
52036;DHT22;38046;49.448;32.074;2022-07-09T03:46:59;21.20;85.40
52036;DHT22;38046;49.448;32.074;2022-07-09T03:49:25;21.40;85.40
52036;DHT22;38046;49.448;32.074;2022-07-09T03:51:50;21.50;84.80
52036;DHT22;38046;49.448;32.074;2022-07-09T03:54:16;21.60;84.10
52036;DHT22;38046;49.448;32.074;2022-07-09T03:56:42;21.60;83.50
52036;DHT22;38046;49.448;32.074;2022-07-09T03:59:07;21.70;83.50
52036;DHT22;38046;49.448;32.074;2022-07-09T04:01:33;21.70;83.50
52036;DHT22;38046;49.448;32.074;2022-07-09T04:03:59;21.70;83.30
52036;DHT22;38046;49.448;32.074;2022-07-09T04:06:25;21.70;83.20
52036;DHT22;38046;49.448;32.074;2022-07-09T04:08:51;21.80;83.30
52036;DHT22;38046;49.448;32.074;2022-07-09T04:11:16;21.90;83.40
52036;DHT22;38046;49.448;32.074;2022-07-09T04:13:42;22.00;83.30
52036;DHT22;38046;49.448;32.074;2022-07-09T04:16:08;22.20;83.50
52036;DHT22;38046;49.448;32.074;2022-07-09T04:18:35;22.60;82.50
52036;DHT22;38046;49.448;32.074;2022-07-09T04:21:00;22.80;81.50
52036;DHT22;38046;49.448;32.074;2022-07-09T04:23:26;23.00;80.30
52036;DHT22;38046;49.448;32.074;2022-07-09T04:25:52;23.00;79.50
52036;DHT22;38046;49.448;32.074;2022-07-09T04:28:19;23.00;79.40
52036;DHT22;38046;49.448;32.074;2022-07-09T04:30:48;23.00;79.20
52036;DHT22;38046;49.448;32.074;2022-07-09T04:33:14;23.00;79.00
52036;DHT22;38046;49.448;32.074;2022-07-09T04:35:40;22.90;78.60
52036;DHT22;38046;49.448;32.074;2022-07-09T04:38:06;22.90;78.80
52036;DHT22;38046;49.448;32.074;2022-07-09T04:40:31;22.90;78.50
52036;DHT22;38046;49.448;32.074;2022-07-09T04:42:57;22.90;78.50
52036;DHT22;38046;49.448;32.074;2022-07-09T04:45:23;22.80;78.40
52036;DHT22;38046;49.448;32.074;2022-07-09T04:47:48;22.90;78.20
52036;DHT22;38046;49.448;32.074;2022-07-09T04:50:14;22.90;78.00
52036;DHT22;38046;49.448;32.074;2022-07-09T04:52:40;22.80;77.90
52036;DHT22;38046;49.448;32.074;2022-07-09T04:55:07;22.80;78.10
52036;DHT22;38046;49.448;32.074;2022-07-09T04:57:33;22.90;78.00
52036;DHT22;38046;49.448;32.074;2022-07-09T04:59:59;22.90;77.80
52036;DHT22;38046;49.448;32.074;2022-07-09T05:02:25;22.90;77.40
52036;DHT22;38046;49.448;32.074;2022-07-09T05:04:51;22.90;77.20
52036;DHT22;38046;49.448;32.074;2022-07-09T05:07:16;22.90;77.00
52036;DHT22;38046;49.448;32.074;2022-07-09T05:09:42;22.80;76.70
52036;DHT22;38046;49.448;32.074;2022-07-09T05:12:08;22.80;76.70
52036;DHT22;38046;49.448;32.074;2022-07-09T05:14:38;22.70;76.80
52036;DHT22;38046;49.448;32.074;2022-07-09T05:17:04;22.70;76.80
52036;DHT22;38046;49.448;32.074;2022-07-09T05:19:31;22.70;76.80
52036;DHT22;38046;49.448;32.074;2022-07-09T05:21:57;22.70;76.70
52036;DHT22;38046;49.448;32.074;2022-07-09T05:24:23;22.70;76.40
52036;DHT22;38046;49.448;32.074;2022-07-09T05:26:49;22.60;76.40
52036;DHT22;38046;49.448;32.074;2022-07-09T05:29:15;22.60;76.30
52036;DHT22;38046;49.448;32.074;2022-07-09T05:31:42;22.60;76.10
52036;DHT22;38046;49.448;32.074;2022-07-09T05:34:07;22.60;76.30
52036;DHT22;38046;49.448;32.074;2022-07-09T05:36:34;22.60;76.30
52036;DHT22;38046;49.448;32.074;2022-07-09T05:39:00;22.70;76.30
52036;DHT22;38046;49.448;32.074;2022-07-09T05:41:26;22.70;76.10
52036;DHT22;38046;49.448;32.074;2022-07-09T05:43:53;22.80;76.00
52036;DHT22;38046;49.448;32.074;2022-07-09T05:46:19;23.00;75.70
52036;DHT22;38046;49.448;32.074;2022-07-09T05:48:46;23.10;75.30
52036;DHT22;38046;49.448;32.074;2022-07-09T05:51:12;23.20;74.80
52036;DHT22;38046;49.448;32.074;2022-07-09T05:53:37;23.30;74.40
52036;DHT22;38046;49.448;32.074;2022-07-09T05:56:03;23.40;74.00
52036;DHT22;38046;49.448;32.074;2022-07-09T05:58:29;23.50;73.70
52036;DHT22;38046;49.448;32.074;2022-07-09T06:00:55;23.50;73.40
52036;DHT22;38046;49.448;32.074;2022-07-09T06:03:20;23.60;73.30
52036;DHT22;38046;49.448;32.074;2022-07-09T06:05:46;23.60;73.30
52036;DHT22;38046;49.448;32.074;2022-07-09T06:08:12;23.70;73.30
52036;DHT22;38046;49.448;32.074;2022-07-09T06:10:37;23.70;73.00
52036;DHT22;38046;49.448;32.074;2022-07-09T06:13:03;23.90;73.00
52036;DHT22;38046;49.448;32.074;2022-07-09T06:15:29;24.00;72.70
52036;DHT22;38046;49.448;32.074;2022-07-09T06:17:55;24.00;72.30
52036;DHT22;38046;49.448;32.074;2022-07-09T06:20:21;24.10;72.00
52036;DHT22;38046;49.448;32.074;2022-07-09T06:22:47;24.20;71.90
52036;DHT22;38046;49.448;32.074;2022-07-09T06:25:13;24.20;71.50
52036;DHT22;38046;49.448;32.074;2022-07-09T06:27:38;24.30;71.40
52036;DHT22;38046;49.448;32.074;2022-07-09T06:30:06;24.30;71.10
52036;DHT22;38046;49.448;32.074;2022-07-09T06:32:31;24.30;70.70
52036;DHT22;38046;49.448;32.074;2022-07-09T06:34:57;24.30;70.60
52036;DHT22;38046;49.448;32.074;2022-07-09T06:37:23;24.30;70.50
52036;DHT22;38046;49.448;32.074;2022-07-09T06:39:48;24.30;70.60
52036;DHT22;38046;49.448;32.074;2022-07-09T06:42:17;24.30;70.60
52036;DHT22;38046;49.448;32.074;2022-07-09T06:44:43;24.30;70.50
52036;DHT22;38046;49.448;32.074;2022-07-09T06:47:10;24.30;70.60
52036;DHT22;38046;49.448;32.074;2022-07-09T06:49:36;24.30;70.70
52036;DHT22;38046;49.448;32.074;2022-07-09T06:52:03;24.30;70.90
52036;DHT22;38046;49.448;32.074;2022-07-09T06:54:29;24.30;70.90
52036;DHT22;38046;49.448;32.074;2022-07-09T06:56:54;24.20;71.20
52036;DHT22;38046;49.448;32.074;2022-07-09T06:59:22;24.20;71.30
52036;DHT22;38046;49.448;32.074;2022-07-09T07:01:48;24.20;71.30
52036;DHT22;38046;49.448;32.074;2022-07-09T07:04:14;24.20;71.60
52036;DHT22;38046;49.448;32.074;2022-07-09T07:06:43;24.10;71.60
52036;DHT22;38046;49.448;32.074;2022-07-09T07:09:09;24.00;71.50
52036;DHT22;38046;49.448;32.074;2022-07-09T07:11:35;24.00;71.90
52036;DHT22;38046;49.448;32.074;2022-07-09T07:14:01;23.90;72.10
52036;DHT22;38046;49.448;32.074;2022-07-09T07:16:27;23.80;72.20
52036;DHT22;38046;49.448;32.074;2022-07-09T07:18:52;23.80;72.40
52036;DHT22;38046;49.448;32.074;2022-07-09T07:21:18;23.80;73.40
52036;DHT22;38046;49.448;32.074;2022-07-09T07:23:44;23.70;72.90
52036;DHT22;38046;49.448;32.074;2022-07-09T07:26:10;23.70;73.00
52036;DHT22;38046;49.448;32.074;2022-07-09T07:28:35;23.70;73.00
52036;DHT22;38046;49.448;32.074;2022-07-09T07:31:01;23.60;73.20
52036;DHT22;38046;49.448;32.074;2022-07-09T07:33:27;23.60;73.30
52036;DHT22;38046;49.448;32.074;2022-07-09T07:35:53;23.50;73.40
52036;DHT22;38046;49.448;32.074;2022-07-09T07:38:19;23.50;73.50
52036;DHT22;38046;49.448;32.074;2022-07-09T07:40:44;23.50;73.70
52036;DHT22;38046;49.448;32.074;2022-07-09T07:43:11;23.40;74.00
52036;DHT22;38046;49.448;32.074;2022-07-09T07:45:37;23.40;74.30
52036;DHT22;38046;49.448;32.074;2022-07-09T07:48:03;23.30;74.20
52036;DHT22;38046;49.448;32.074;2022-07-09T07:50:28;23.30;74.30
52036;DHT22;38046;49.448;32.074;2022-07-09T07:52:54;23.30;74.60
52036;DHT22;38046;49.448;32.074;2022-07-09T07:55:21;23.20;74.70
52036;DHT22;38046;49.448;32.074;2022-07-09T07:57:47;23.10;75.50
52036;DHT22;38046;49.448;32.074;2022-07-09T08:00:13;23.10;75.00
52036;DHT22;38046;49.448;32.074;2022-07-09T08:02:39;23.10;74.60
52036;DHT22;38046;49.448;32.074;2022-07-09T08:05:05;23.10;74.70
52036;DHT22;38046;49.448;32.074;2022-07-09T08:07:31;23.10;74.30
52036;DHT22;38046;49.448;32.074;2022-07-09T08:09:57;23.10;73.90
52036;DHT22;38046;49.448;32.074;2022-07-09T08:12:23;23.20;73.80
52036;DHT22;38046;49.448;32.074;2022-07-09T08:14:49;23.30;73.50
52036;DHT22;38046;49.448;32.074;2022-07-09T08:17:14;23.40;73.10
52036;DHT22;38046;49.448;32.074;2022-07-09T08:19:40;23.40;73.10
52036;DHT22;38046;49.448;32.074;2022-07-09T08:22:05;23.50;72.90
52036;DHT22;38046;49.448;32.074;2022-07-09T08:24:31;23.60;72.90
52036;DHT22;38046;49.448;32.074;2022-07-09T08:26:57;23.70;72.80
52036;DHT22;38046;49.448;32.074;2022-07-09T08:29:24;23.80;72.70
52036;DHT22;38046;49.448;32.074;2022-07-09T08:31:50;23.80;72.50
52036;DHT22;38046;49.448;32.074;2022-07-09T08:34:16;23.90;72.10
52036;DHT22;38046;49.448;32.074;2022-07-09T08:36:42;23.90;71.80
52036;DHT22;38046;49.448;32.074;2022-07-09T08:39:08;23.90;71.40
52036;DHT22;38046;49.448;32.074;2022-07-09T08:41:34;24.00;71.50
52036;DHT22;38046;49.448;32.074;2022-07-09T08:44:04;24.00;71.30
52036;DHT22;38046;49.448;32.074;2022-07-09T08:46:33;24.00;71.20
52036;DHT22;38046;49.448;32.074;2022-07-09T08:48:59;24.00;71.10
52036;DHT22;38046;49.448;32.074;2022-07-09T08:51:25;24.00;71.30
52036;DHT22;38046;49.448;32.074;2022-07-09T08:53:53;24.10;71.10
52036;DHT22;38046;49.448;32.074;2022-07-09T08:56:20;24.20;70.70
52036;DHT22;38046;49.448;32.074;2022-07-09T08:58:46;24.30;70.40
52036;DHT22;38046;49.448;32.074;2022-07-09T09:01:16;24.30;70.00
52036;DHT22;38046;49.448;32.074;2022-07-09T09:03:42;24.40;70.00
52036;DHT22;38046;49.448;32.074;2022-07-09T09:06:09;24.50;69.70
52036;DHT22;38046;49.448;32.074;2022-07-09T09:08:40;24.60;69.50
52036;DHT22;38046;49.448;32.074;2022-07-09T09:11:15;24.70;69.90
52036;DHT22;38046;49.448;32.074;2022-07-09T09:13:42;24.80;68.90
52036;DHT22;38046;49.448;32.074;2022-07-09T09:16:09;24.90;68.60
52036;DHT22;38046;49.448;32.074;2022-07-09T09:18:46;24.90;68.30
52036;DHT22;38046;49.448;32.074;2022-07-09T09:21:13;25.00;68.30
52036;DHT22;38046;49.448;32.074;2022-07-09T09:26:17;25.00;67.80
52036;DHT22;38046;49.448;32.074;2022-07-09T09:31:34;25.00;67.50
52036;DHT22;38046;49.448;32.074;2022-07-09T09:34:10;25.00;67.60
52036;DHT22;38046;49.448;32.074;2022-07-09T09:36:41;24.90;67.40
52036;DHT22;38046;49.448;32.074;2022-07-09T09:39:28;24.80;67.50
52036;DHT22;38046;49.448;32.074;2022-07-09T09:41:59;24.80;67.90
52036;DHT22;38046;49.448;32.074;2022-07-09T09:44:29;24.80;67.90
52036;DHT22;38046;49.448;32.074;2022-07-09T09:46:57;24.80;68.00
52036;DHT22;38046;49.448;32.074;2022-07-09T09:49:23;24.80;67.90
52036;DHT22;38046;49.448;32.074;2022-07-09T09:52:09;24.80;67.60
52036;DHT22;38046;49.448;32.074;2022-07-09T09:54:37;24.80;67.20
52036;DHT22;38046;49.448;32.074;2022-07-09T09:57:08;24.80;67.10
52036;DHT22;38046;49.448;32.074;2022-07-09T09:59:40;24.90;67.00
52036;DHT22;38046;49.448;32.074;2022-07-09T10:02:07;24.90;66.50
52036;DHT22;38046;49.448;32.074;2022-07-09T10:04:36;24.90;66.20
52036;DHT22;38046;49.448;32.074;2022-07-09T10:07:12;24.90;66.00
52036;DHT22;38046;49.448;32.074;2022-07-09T10:09:38;25.00;66.10
52036;DHT22;38046;49.448;32.074;2022-07-09T10:12:04;25.00;66.30
52036;DHT22;38046;49.448;32.074;2022-07-09T10:14:36;25.00;65.90
52036;DHT22;38046;49.448;32.074;2022-07-09T10:17:15;25.00;66.00
52036;DHT22;38046;49.448;32.074;2022-07-09T10:19:57;25.00;65.80
52036;DHT22;38046;49.448;32.074;2022-07-09T10:22:34;25.00;65.50
52036;DHT22;38046;49.448;32.074;2022-07-09T10:25:01;25.10;65.40
52036;DHT22;38046;49.448;32.074;2022-07-09T10:27:26;25.10;65.40
52036;DHT22;38046;49.448;32.074;2022-07-09T10:29:58;25.10;65.30
52036;DHT22;38046;49.448;32.074;2022-07-09T10:37:40;25.20;65.30
52036;DHT22;38046;49.448;32.074;2022-07-09T10:40:13;25.30;65.40
52036;DHT22;38046;49.448;32.074;2022-07-09T10:42:40;25.30;65.10
52036;DHT22;38046;49.448;32.074;2022-07-09T10:45:22;25.40;64.80
52036;DHT22;38046;49.448;32.074;2022-07-09T10:47:59;25.40;65.00
52036;DHT22;38046;49.448;32.074;2022-07-09T10:50:27;25.40;65.00
52036;DHT22;38046;49.448;32.074;2022-07-09T10:52:53;25.50;64.90
52036;DHT22;38046;49.448;32.074;2022-07-09T10:55:20;25.50;64.50
52036;DHT22;38046;49.448;32.074;2022-07-09T10:57:46;25.50;64.10
52036;DHT22;38046;49.448;32.074;2022-07-09T11:00:19;25.50;64.00
52036;DHT22;38046;49.448;32.074;2022-07-09T11:02:52;25.50;64.60
52036;DHT22;38046;49.448;32.074;2022-07-09T11:05:18;25.60;64.10
52036;DHT22;38046;49.448;32.074;2022-07-09T11:07:57;25.60;64.10
52036;DHT22;38046;49.448;32.074;2022-07-09T11:10:23;25.60;63.90
52036;DHT22;38046;49.448;32.074;2022-07-09T11:12:49;25.70;63.90
52036;DHT22;38046;49.448;32.074;2022-07-09T11:15:19;25.70;64.00
52036;DHT22;38046;49.448;32.074;2022-07-09T11:17:54;25.70;63.60
52036;DHT22;38046;49.448;32.074;2022-07-09T11:20:20;25.70;63.10
52036;DHT22;38046;49.448;32.074;2022-07-09T11:22:49;25.60;63.20
52036;DHT22;38046;49.448;32.074;2022-07-09T11:25:16;25.60;63.00
52036;DHT22;38046;49.448;32.074;2022-07-09T11:27:42;25.60;63.20
52036;DHT22;38046;49.448;32.074;2022-07-09T11:30:17;25.50;63.20
52036;DHT22;38046;49.448;32.074;2022-07-09T11:32:43;25.40;63.00
52036;DHT22;38046;49.448;32.074;2022-07-09T11:35:10;25.40;63.30
52036;DHT22;38046;49.448;32.074;2022-07-09T11:37:37;25.40;63.20
52036;DHT22;38046;49.448;32.074;2022-07-09T11:40:04;25.30;63.30
52036;DHT22;38046;49.448;32.074;2022-07-09T11:42:30;25.20;63.40
52036;DHT22;38046;49.448;32.074;2022-07-09T11:44:57;25.20;63.50
52036;DHT22;38046;49.448;32.074;2022-07-09T11:47:42;25.20;64.00
52036;DHT22;38046;49.448;32.074;2022-07-09T11:50:15;25.20;63.30
52036;DHT22;38046;49.448;32.074;2022-07-09T11:52:50;25.20;63.60
52036;DHT22;38046;49.448;32.074;2022-07-09T11:55:21;25.10;63.50
52036;DHT22;38046;49.448;32.074;2022-07-09T11:58:04;25.10;63.70
52036;DHT22;38046;49.448;32.074;2022-07-09T12:00:32;25.10;63.40
52036;DHT22;38046;49.448;32.074;2022-07-09T12:02:59;25.10;63.90
52036;DHT22;38046;49.448;32.074;2022-07-09T12:05:29;25.10;63.80
52036;DHT22;38046;49.448;32.074;2022-07-09T12:07:59;25.10;64.00
52036;DHT22;38046;49.448;32.074;2022-07-09T12:10:31;25.10;64.00
52036;DHT22;38046;49.448;32.074;2022-07-09T12:12:58;25.00;63.90
52036;DHT22;38046;49.448;32.074;2022-07-09T12:15:25;25.00;63.80
52036;DHT22;38046;49.448;32.074;2022-07-09T12:17:56;25.00;63.70
52036;DHT22;38046;49.448;32.074;2022-07-09T12:20:23;25.00;63.70
52036;DHT22;38046;49.448;32.074;2022-07-09T12:22:49;25.00;63.90
52036;DHT22;38046;49.448;32.074;2022-07-09T12:25:16;24.90;64.20
52036;DHT22;38046;49.448;32.074;2022-07-09T12:27:42;25.00;64.30
52036;DHT22;38046;49.448;32.074;2022-07-09T12:30:08;24.90;64.40
52036;DHT22;38046;49.448;32.074;2022-07-09T12:32:34;24.90;64.50
52036;DHT22;38046;49.448;32.074;2022-07-09T12:35:03;24.90;64.50
52036;DHT22;38046;49.448;32.074;2022-07-09T12:37:29;24.90;64.80
52036;DHT22;38046;49.448;32.074;2022-07-09T12:39:54;24.90;64.80
52036;DHT22;38046;49.448;32.074;2022-07-09T12:42:20;24.90;65.00
52036;DHT22;38046;49.448;32.074;2022-07-09T12:44:47;24.90;64.80
52036;DHT22;38046;49.448;32.074;2022-07-09T12:47:13;24.90;64.80
52036;DHT22;38046;49.448;32.074;2022-07-09T12:49:39;24.80;64.70
52036;DHT22;38046;49.448;32.074;2022-07-09T12:52:05;24.80;64.90
52036;DHT22;38046;49.448;32.074;2022-07-09T12:54:30;24.80;64.90
52036;DHT22;38046;49.448;32.074;2022-07-09T12:56:56;24.80;65.00
52036;DHT22;38046;49.448;32.074;2022-07-09T12:59:22;24.80;65.20
52036;DHT22;38046;49.448;32.074;2022-07-09T13:01:48;24.80;65.20
52036;DHT22;38046;49.448;32.074;2022-07-09T13:04:14;24.80;65.30
52036;DHT22;38046;49.448;32.074;2022-07-09T13:06:40;24.70;65.30
52036;DHT22;38046;49.448;32.074;2022-07-09T13:09:07;24.70;66.00
52036;DHT22;38046;49.448;32.074;2022-07-09T13:11:34;24.70;65.30
52036;DHT22;38046;49.448;32.074;2022-07-09T13:14:00;24.70;65.50
52036;DHT22;38046;49.448;32.074;2022-07-09T13:16:26;24.70;65.50
52036;DHT22;38046;49.448;32.074;2022-07-09T13:18:51;24.70;65.80
52036;DHT22;38046;49.448;32.074;2022-07-09T13:21:18;24.70;65.80
52036;DHT22;38046;49.448;32.074;2022-07-09T13:23:44;24.70;65.80
52036;DHT22;38046;49.448;32.074;2022-07-09T13:26:10;24.70;65.60
52036;DHT22;38046;49.448;32.074;2022-07-09T13:28:35;24.60;65.40
52036;DHT22;38046;49.448;32.074;2022-07-09T13:31:01;24.60;65.40
52036;DHT22;38046;49.448;32.074;2022-07-09T13:33:27;24.60;65.30
52036;DHT22;38046;49.448;32.074;2022-07-09T13:35:52;24.60;65.30
52036;DHT22;38046;49.448;32.074;2022-07-09T13:38:19;24.60;65.30
52036;DHT22;38046;49.448;32.074;2022-07-09T13:40:44;24.60;65.20
52036;DHT22;38046;49.448;32.074;2022-07-09T13:43:10;24.60;64.90
52036;DHT22;38046;49.448;32.074;2022-07-09T13:45:35;24.50;65.00
52036;DHT22;38046;49.448;32.074;2022-07-09T13:48:01;24.50;65.30
52036;DHT22;38046;49.448;32.074;2022-07-09T13:50:27;24.50;65.60
52036;DHT22;38046;49.448;32.074;2022-07-09T13:52:53;24.50;65.30
52036;DHT22;38046;49.448;32.074;2022-07-09T13:55:19;24.50;65.50
52036;DHT22;38046;49.448;32.074;2022-07-09T13:57:44;24.50;65.80
52036;DHT22;38046;49.448;32.074;2022-07-09T14:00:11;24.50;65.40
52036;DHT22;38046;49.448;32.074;2022-07-09T14:02:36;24.50;65.70
52036;DHT22;38046;49.448;32.074;2022-07-09T14:05:04;24.40;65.60
52036;DHT22;38046;49.448;32.074;2022-07-09T14:07:30;24.40;65.60
52036;DHT22;38046;49.448;32.074;2022-07-09T14:09:56;24.40;65.70
52036;DHT22;38046;49.448;32.074;2022-07-09T14:12:22;24.30;65.60
52036;DHT22;38046;49.448;32.074;2022-07-09T14:14:50;24.30;65.60
52036;DHT22;38046;49.448;32.074;2022-07-09T14:17:16;24.30;65.60
52036;DHT22;38046;49.448;32.074;2022-07-09T14:19:42;24.30;65.70
52036;DHT22;38046;49.448;32.074;2022-07-09T14:22:07;24.30;65.80
52036;DHT22;38046;49.448;32.074;2022-07-09T14:24:33;24.30;66.00
52036;DHT22;38046;49.448;32.074;2022-07-09T14:26:59;24.30;65.90
52036;DHT22;38046;49.448;32.074;2022-07-09T14:29:25;24.30;65.70
52036;DHT22;38046;49.448;32.074;2022-07-09T14:31:51;24.30;65.80
52036;DHT22;38046;49.448;32.074;2022-07-09T14:34:17;24.30;65.70
52036;DHT22;38046;49.448;32.074;2022-07-09T14:36:43;24.30;65.80
52036;DHT22;38046;49.448;32.074;2022-07-09T14:39:09;24.30;66.20
52036;DHT22;38046;49.448;32.074;2022-07-09T14:41:35;24.30;66.80
52036;DHT22;38046;49.448;32.074;2022-07-09T14:44:04;24.30;67.00
52036;DHT22;38046;49.448;32.074;2022-07-09T14:46:30;24.30;66.90
52036;DHT22;38046;49.448;32.074;2022-07-09T14:48:56;24.30;66.70
52036;DHT22;38046;49.448;32.074;2022-07-09T14:51:22;24.30;66.60
52036;DHT22;38046;49.448;32.074;2022-07-09T14:53:48;24.30;67.00
52036;DHT22;38046;49.448;32.074;2022-07-09T14:56:13;24.30;67.50
52036;DHT22;38046;49.448;32.074;2022-07-09T14:58:42;24.30;67.90
52036;DHT22;38046;49.448;32.074;2022-07-09T15:01:08;24.20;67.80
52036;DHT22;38046;49.448;32.074;2022-07-09T15:03:34;24.20;68.20
52036;DHT22;38046;49.448;32.074;2022-07-09T15:06:00;24.20;68.30
52036;DHT22;38046;49.448;32.074;2022-07-09T15:08:25;24.20;68.50
52036;DHT22;38046;49.448;32.074;2022-07-09T15:10:51;24.10;68.60
52036;DHT22;38046;49.448;32.074;2022-07-09T15:13:17;24.10;68.90
52036;DHT22;38046;49.448;32.074;2022-07-09T15:15:42;24.10;69.00
52036;DHT22;38046;49.448;32.074;2022-07-09T15:18:08;24.00;69.10
52036;DHT22;38046;49.448;32.074;2022-07-09T15:20:34;24.00;69.40
52036;DHT22;38046;49.448;32.074;2022-07-09T15:23:03;24.00;69.80